sensor_id;sensor_type;location;lat;lon;timestamp;temperature;humidity
22698;DHT22;11516;51.612;7.510;2022-11-15T00:00:23;9.90;99.90
22698;DHT22;11516;51.612;7.510;2022-11-15T00:02:49;9.90;99.90
22698;DHT22;11516;51.612;7.510;2022-11-15T00:05:15;9.90;99.90
22698;DHT22;11516;51.612;7.510;2022-11-15T00:07:40;10.00;99.90
22698;DHT22;11516;51.612;7.510;2022-11-15T00:10:06;10.00;99.90
22698;DHT22;11516;51.612;7.510;2022-11-15T00:12:32;10.00;99.90
22698;DHT22;11516;51.612;7.510;2022-11-15T00:14:57;10.00;99.90
22698;DHT22;11516;51.612;7.510;2022-11-15T00:17:23;10.10;99.90
22698;DHT22;11516;51.612;7.510;2022-11-15T00:19:48;10.10;99.90
22698;DHT22;11516;51.612;7.510;2022-11-15T00:22:14;10.10;99.90
22698;DHT22;11516;51.612;7.510;2022-11-15T00:24:40;10.10;99.90
22698;DHT22;11516;51.612;7.510;2022-11-15T00:27:05;10.10;99.90
22698;DHT22;11516;51.612;7.510;2022-11-15T00:29:31;10.10;99.90
22698;DHT22;11516;51.612;7.510;2022-11-15T00:31:56;10.10;99.90
22698;DHT22;11516;51.612;7.510;2022-11-15T00:34:22;10.10;99.90
22698;DHT22;11516;51.612;7.510;2022-11-15T00:36:47;10.10;99.90
22698;DHT22;11516;51.612;7.510;2022-11-15T00:39:13;10.10;99.90
22698;DHT22;11516;51.612;7.510;2022-11-15T00:41:38;10.10;99.90
22698;DHT22;11516;51.612;7.510;2022-11-15T00:44:04;10.10;99.90
22698;DHT22;11516;51.612;7.510;2022-11-15T00:46:29;10.20;99.90
22698;DHT22;11516;51.612;7.510;2022-11-15T00:48:55;10.20;99.90
22698;DHT22;11516;51.612;7.510;2022-11-15T00:51:20;10.20;99.90
22698;DHT22;11516;51.612;7.510;2022-11-15T00:53:46;10.30;99.90
22698;DHT22;11516;51.612;7.510;2022-11-15T00:56:11;10.30;99.90
22698;DHT22;11516;51.612;7.510;2022-11-15T00:58:37;10.40;99.90
22698;DHT22;11516;51.612;7.510;2022-11-15T01:01:20;10.40;99.90
22698;DHT22;11516;51.612;7.510;2022-11-15T01:03:46;10.40;99.90
22698;DHT22;11516;51.612;7.510;2022-11-15T01:06:11;10.40;99.90
22698;DHT22;11516;51.612;7.510;2022-11-15T01:08:40;10.40;99.90
22698;DHT22;11516;51.612;7.510;2022-11-15T01:11:09;10.50;99.90
22698;DHT22;11516;51.612;7.510;2022-11-15T01:13:37;10.50;99.90
22698;DHT22;11516;51.612;7.510;2022-11-15T01:16:09;10.50;99.90
22698;DHT22;11516;51.612;7.510;2022-11-15T01:18:35;10.60;99.90
22698;DHT22;11516;51.612;7.510;2022-11-15T01:21:05;10.60;99.90
22698;DHT22;11516;51.612;7.510;2022-11-15T01:23:31;10.60;99.90
22698;DHT22;11516;51.612;7.510;2022-11-15T01:26:00;10.60;99.90
22698;DHT22;11516;51.612;7.510;2022-11-15T01:28:33;10.70;99.90
22698;DHT22;11516;51.612;7.510;2022-11-15T01:31:00;10.70;99.90
22698;DHT22;11516;51.612;7.510;2022-11-15T01:33:29;10.80;99.90
22698;DHT22;11516;51.612;7.510;2022-11-15T01:35:55;10.80;99.90
22698;DHT22;11516;51.612;7.510;2022-11-15T01:38:21;11.10;99.90
22698;DHT22;11516;51.612;7.510;2022-11-15T01:40:47;11.20;99.90
22698;DHT22;11516;51.612;7.510;2022-11-15T01:43:24;11.40;99.90
22698;DHT22;11516;51.612;7.510;2022-11-15T01:46:06;11.60;99.90
22698;DHT22;11516;51.612;7.510;2022-11-15T01:48:35;11.70;99.90
22698;DHT22;11516;51.612;7.510;2022-11-15T01:51:03;11.80;99.90
22698;DHT22;11516;51.612;7.510;2022-11-15T01:53:32;11.90;99.90
22698;DHT22;11516;51.612;7.510;2022-11-15T01:56:05;12.00;99.90
22698;DHT22;11516;51.612;7.510;2022-11-15T01:58:32;12.10;99.90
22698;DHT22;11516;51.612;7.510;2022-11-15T02:00:58;12.10;99.90
22698;DHT22;11516;51.612;7.510;2022-11-15T02:03:31;12.20;99.90
22698;DHT22;11516;51.612;7.510;2022-11-15T02:05:59;12.20;99.90
22698;DHT22;11516;51.612;7.510;2022-11-15T02:08:25;12.20;99.90
22698;DHT22;11516;51.612;7.510;2022-11-15T02:10:50;12.30;99.90
22698;DHT22;11516;51.612;7.510;2022-11-15T02:13:17;12.30;99.90
22698;DHT22;11516;51.612;7.510;2022-11-15T02:18:32;12.50;99.90
22698;DHT22;11516;51.612;7.510;2022-11-15T02:21:26;12.50;99.90
22698;DHT22;11516;51.612;7.510;2022-11-15T02:33:08;12.80;99.90
22698;DHT22;11516;51.612;7.510;2022-11-15T02:36:01;12.80;99.90
22698;DHT22;11516;51.612;7.510;2022-11-15T02:38:37;12.90;99.90
22698;DHT22;11516;51.612;7.510;2022-11-15T02:41:13;13.00;99.90
22698;DHT22;11516;51.612;7.510;2022-11-15T02:44:02;13.00;99.90
22698;DHT22;11516;51.612;7.510;2022-11-15T02:46:43;13.00;99.90
22698;DHT22;11516;51.612;7.510;2022-11-15T02:49:32;12.90;99.90
22698;DHT22;11516;51.612;7.510;2022-11-15T02:51:58;12.90;99.90
22698;DHT22;11516;51.612;7.510;2022-11-15T02:54:26;13.00;99.90
22698;DHT22;11516;51.612;7.510;2022-11-15T02:56:54;13.00;99.90
22698;DHT22;11516;51.612;7.510;2022-11-15T03:02:14;13.00;99.90
22698;DHT22;11516;51.612;7.510;2022-11-15T03:07:15;13.10;99.90
22698;DHT22;11516;51.612;7.510;2022-11-15T03:09:55;13.00;99.90
22698;DHT22;11516;51.612;7.510;2022-11-15T03:12:42;12.90;99.90
22698;DHT22;11516;51.612;7.510;2022-11-15T03:15:28;12.80;99.90
22698;DHT22;11516;51.612;7.510;2022-11-15T03:18:02;12.70;99.90
22698;DHT22;11516;51.612;7.510;2022-11-15T03:20:30;12.70;99.90
22698;DHT22;11516;51.612;7.510;2022-11-15T03:23:04;12.70;99.90
22698;DHT22;11516;51.612;7.510;2022-11-15T03:25:32;12.60;99.90
22698;DHT22;11516;51.612;7.510;2022-11-15T03:28:02;12.50;99.90
22698;DHT22;11516;51.612;7.510;2022-11-15T03:30:30;12.30;99.90
22698;DHT22;11516;51.612;7.510;2022-11-15T03:32:58;12.20;99.90
22698;DHT22;11516;51.612;7.510;2022-11-15T03:35:27;12.10;99.90
22698;DHT22;11516;51.612;7.510;2022-11-15T03:40:39;12.00;99.90
22698;DHT22;11516;51.612;7.510;2022-11-15T03:45:43;12.00;99.90
22698;DHT22;11516;51.612;7.510;2022-11-15T03:48:21;12.00;99.90
22698;DHT22;11516;51.612;7.510;2022-11-15T03:50:48;12.00;99.90
22698;DHT22;11516;51.612;7.510;2022-11-15T03:53:14;12.10;99.90
22698;DHT22;11516;51.612;7.510;2022-11-15T03:55:40;12.00;99.90
22698;DHT22;11516;51.612;7.510;2022-11-15T03:58:05;12.10;99.90
22698;DHT22;11516;51.612;7.510;2022-11-15T04:00:31;12.10;99.90
22698;DHT22;11516;51.612;7.510;2022-11-15T04:02:57;12.10;99.90
22698;DHT22;11516;51.612;7.510;2022-11-15T04:05:22;12.10;99.90
22698;DHT22;11516;51.612;7.510;2022-11-15T04:07:48;12.10;99.90
22698;DHT22;11516;51.612;7.510;2022-11-15T04:10:13;12.10;99.90
22698;DHT22;11516;51.612;7.510;2022-11-15T04:12:41;12.10;99.90
22698;DHT22;11516;51.612;7.510;2022-11-15T04:15:16;12.10;99.90
22698;DHT22;11516;51.612;7.510;2022-11-15T04:17:45;12.10;99.90
22698;DHT22;11516;51.612;7.510;2022-11-15T04:20:19;12.10;99.90
22698;DHT22;11516;51.612;7.510;2022-11-15T04:23:06;12.20;99.90
22698;DHT22;11516;51.612;7.510;2022-11-15T04:25:52;12.20;99.90
22698;DHT22;11516;51.612;7.510;2022-11-15T04:28:18;12.30;99.90
22698;DHT22;11516;51.612;7.510;2022-11-15T04:30:44;12.50;99.90
22698;DHT22;11516;51.612;7.510;2022-11-15T04:33:10;12.60;99.90
22698;DHT22;11516;51.612;7.510;2022-11-15T04:35:35;12.60;99.90
22698;DHT22;11516;51.612;7.510;2022-11-15T04:38:02;12.60;99.90
22698;DHT22;11516;51.612;7.510;2022-11-15T04:40:28;12.70;99.90
22698;DHT22;11516;51.612;7.510;2022-11-15T04:42:55;12.80;99.90
22698;DHT22;11516;51.612;7.510;2022-11-15T04:45:20;12.80;99.90
22698;DHT22;11516;51.612;7.510;2022-11-15T04:47:46;12.90;99.90
22698;DHT22;11516;51.612;7.510;2022-11-15T04:50:13;12.90;99.90
22698;DHT22;11516;51.612;7.510;2022-11-15T04:52:41;13.00;99.90
22698;DHT22;11516;51.612;7.510;2022-11-15T04:55:08;13.00;99.90
22698;DHT22;11516;51.612;7.510;2022-11-15T04:57:33;13.20;99.90
22698;DHT22;11516;51.612;7.510;2022-11-15T04:59:59;13.10;99.90
22698;DHT22;11516;51.612;7.510;2022-11-15T05:02:24;13.10;99.90
22698;DHT22;11516;51.612;7.510;2022-11-15T05:05:10;13.10;99.90
22698;DHT22;11516;51.612;7.510;2022-11-15T05:07:35;13.00;99.90
22698;DHT22;11516;51.612;7.510;2022-11-15T05:10:01;13.00;99.90
22698;DHT22;11516;51.612;7.510;2022-11-15T05:12:26;13.10;99.90
22698;DHT22;11516;51.612;7.510;2022-11-15T05:14:52;13.00;99.90
22698;DHT22;11516;51.612;7.510;2022-11-15T05:17:17;13.10;99.90
22698;DHT22;11516;51.612;7.510;2022-11-15T05:19:43;13.10;99.90
22698;DHT22;11516;51.612;7.510;2022-11-15T05:22:09;13.00;99.90
22698;DHT22;11516;51.612;7.510;2022-11-15T05:24:35;13.00;99.90
22698;DHT22;11516;51.612;7.510;2022-11-15T05:27:00;13.10;99.90
22698;DHT22;11516;51.612;7.510;2022-11-15T05:29:26;13.50;99.90
22698;DHT22;11516;51.612;7.510;2022-11-15T05:31:51;13.30;99.90
22698;DHT22;11516;51.612;7.510;2022-11-15T05:34:17;13.30;99.90
22698;DHT22;11516;51.612;7.510;2022-11-15T05:36:43;13.30;99.90
22698;DHT22;11516;51.612;7.510;2022-11-15T05:39:11;13.30;99.90
22698;DHT22;11516;51.612;7.510;2022-11-15T05:41:43;13.20;99.90
22698;DHT22;11516;51.612;7.510;2022-11-15T05:44:11;13.20;99.90
22698;DHT22;11516;51.612;7.510;2022-11-15T05:46:39;14.40;99.90
22698;DHT22;11516;51.612;7.510;2022-11-15T05:49:06;13.00;99.90
22698;DHT22;11516;51.612;7.510;2022-11-15T05:51:32;13.00;99.90
22698;DHT22;11516;51.612;7.510;2022-11-15T05:54:00;13.00;99.90
22698;DHT22;11516;51.612;7.510;2022-11-15T05:56:26;12.90;99.90
22698;DHT22;11516;51.612;7.510;2022-11-15T05:58:55;13.00;99.90
22698;DHT22;11516;51.612;7.510;2022-11-15T06:01:25;13.00;99.90
22698;DHT22;11516;51.612;7.510;2022-11-15T06:03:50;13.20;99.90
22698;DHT22;11516;51.612;7.510;2022-11-15T06:06:16;13.00;99.90
22698;DHT22;11516;51.612;7.510;2022-11-15T06:08:41;13.00;99.90
22698;DHT22;11516;51.612;7.510;2022-11-15T06:11:07;13.00;99.90
22698;DHT22;11516;51.612;7.510;2022-11-15T06:13:33;13.10;99.90
22698;DHT22;11516;51.612;7.510;2022-11-15T06:15:59;13.10;99.90
22698;DHT22;11516;51.612;7.510;2022-11-15T06:18:25;13.10;99.90
22698;DHT22;11516;51.612;7.510;2022-11-15T06:20:50;13.10;99.90
22698;DHT22;11516;51.612;7.510;2022-11-15T06:23:16;13.20;99.90
22698;DHT22;11516;51.612;7.510;2022-11-15T06:25:42;13.30;99.90
22698;DHT22;11516;51.612;7.510;2022-11-15T06:28:08;13.30;99.90
22698;DHT22;11516;51.612;7.510;2022-11-15T06:30:33;13.70;99.90
22698;DHT22;11516;51.612;7.510;2022-11-15T06:33:01;13.20;99.90
22698;DHT22;11516;51.612;7.510;2022-11-15T06:35:27;13.20;99.90
22698;DHT22;11516;51.612;7.510;2022-11-15T06:37:53;13.20;99.90
22698;DHT22;11516;51.612;7.510;2022-11-15T06:40:19;13.20;99.90
22698;DHT22;11516;51.612;7.510;2022-11-15T06:42:44;13.30;99.90
22698;DHT22;11516;51.612;7.510;2022-11-15T06:45:10;13.30;99.90
22698;DHT22;11516;51.612;7.510;2022-11-15T06:47:35;13.30;99.90
22698;DHT22;11516;51.612;7.510;2022-11-15T06:50:01;13.30;99.90
22698;DHT22;11516;51.612;7.510;2022-11-15T06:52:26;14.40;99.90
22698;DHT22;11516;51.612;7.510;2022-11-15T06:54:57;13.30;99.90
22698;DHT22;11516;51.612;7.510;2022-11-15T06:57:23;13.40;99.90
22698;DHT22;11516;51.612;7.510;2022-11-15T06:59:48;13.30;99.90
22698;DHT22;11516;51.612;7.510;2022-11-15T07:02:14;13.30;99.90
22698;DHT22;11516;51.612;7.510;2022-11-15T07:04:39;13.40;99.90
22698;DHT22;11516;51.612;7.510;2022-11-15T07:07:05;13.50;99.90
22698;DHT22;11516;51.612;7.510;2022-11-15T07:09:31;13.50;99.90
22698;DHT22;11516;51.612;7.510;2022-11-15T07:11:56;13.40;99.90
22698;DHT22;11516;51.612;7.510;2022-11-15T07:14:22;13.40;99.90
22698;DHT22;11516;51.612;7.510;2022-11-15T07:16:47;14.40;99.90
22698;DHT22;11516;51.612;7.510;2022-11-15T07:19:13;13.30;99.90
22698;DHT22;11516;51.612;7.510;2022-11-15T07:21:38;13.30;99.90
22698;DHT22;11516;51.612;7.510;2022-11-15T07:24:04;13.40;99.90
22698;DHT22;11516;51.612;7.510;2022-11-15T07:26:30;13.50;99.90
22698;DHT22;11516;51.612;7.510;2022-11-15T07:28:55;13.60;99.90
22698;DHT22;11516;51.612;7.510;2022-11-15T07:31:21;13.60;99.90
22698;DHT22;11516;51.612;7.510;2022-11-15T07:33:47;13.60;99.90
22698;DHT22;11516;51.612;7.510;2022-11-15T07:36:13;13.60;99.90
22698;DHT22;11516;51.612;7.510;2022-11-15T07:38:38;13.60;99.90
22698;DHT22;11516;51.612;7.510;2022-11-15T07:41:05;13.70;99.90
22698;DHT22;11516;51.612;7.510;2022-11-15T07:43:31;13.70;99.90
22698;DHT22;11516;51.612;7.510;2022-11-15T07:46:03;13.80;99.90
22698;DHT22;11516;51.612;7.510;2022-11-15T07:48:29;13.80;99.90
22698;DHT22;11516;51.612;7.510;2022-11-15T07:50:55;13.90;99.90
22698;DHT22;11516;51.612;7.510;2022-11-15T07:53:21;13.90;99.90
22698;DHT22;11516;51.612;7.510;2022-11-15T07:55:46;13.80;99.90
22698;DHT22;11516;51.612;7.510;2022-11-15T07:58:12;14.60;99.90
22698;DHT22;11516;51.612;7.510;2022-11-15T08:00:38;13.80;99.90
22698;DHT22;11516;51.612;7.510;2022-11-15T08:03:13;13.80;99.90
22698;DHT22;11516;51.612;7.510;2022-11-15T08:05:40;13.80;99.90
22698;DHT22;11516;51.612;7.510;2022-11-15T08:08:07;13.70;99.90
22698;DHT22;11516;51.612;7.510;2022-11-15T08:10:33;13.80;99.90
22698;DHT22;11516;51.612;7.510;2022-11-15T08:13:09;13.90;99.90
22698;DHT22;11516;51.612;7.510;2022-11-15T08:15:35;13.70;99.90
22698;DHT22;11516;51.612;7.510;2022-11-15T08:18:08;13.70;99.90
22698;DHT22;11516;51.612;7.510;2022-11-15T08:20:37;13.70;99.90
22698;DHT22;11516;51.612;7.510;2022-11-15T08:23:04;13.70;99.90
22698;DHT22;11516;51.612;7.510;2022-11-15T08:25:31;13.70;99.90
22698;DHT22;11516;51.612;7.510;2022-11-15T08:27:59;14.70;99.90
22698;DHT22;11516;51.612;7.510;2022-11-15T08:30:26;14.70;99.90
22698;DHT22;11516;51.612;7.510;2022-11-15T08:32:52;13.70;99.90
22698;DHT22;11516;51.612;7.510;2022-11-15T08:35:19;13.70;99.90
22698;DHT22;11516;51.612;7.510;2022-11-15T08:37:45;13.60;99.90
22698;DHT22;11516;51.612;7.510;2022-11-15T08:40:12;13.60;99.90
22698;DHT22;11516;51.612;7.510;2022-11-15T08:42:39;13.60;99.90
22698;DHT22;11516;51.612;7.510;2022-11-15T08:45:06;13.70;99.90
22698;DHT22;11516;51.612;7.510;2022-11-15T08:47:31;13.70;99.90
22698;DHT22;11516;51.612;7.510;2022-11-15T08:49:57;13.70;99.90
22698;DHT22;11516;51.612;7.510;2022-11-15T08:52:22;13.80;99.90
22698;DHT22;11516;51.612;7.510;2022-11-15T08:54:48;13.80;99.90
22698;DHT22;11516;51.612;7.510;2022-11-15T08:57:14;13.80;99.90
22698;DHT22;11516;51.612;7.510;2022-11-15T08:59:39;13.80;99.90
22698;DHT22;11516;51.612;7.510;2022-11-15T09:02:05;13.80;99.90
22698;DHT22;11516;51.612;7.510;2022-11-15T09:04:31;13.80;99.90
22698;DHT22;11516;51.612;7.510;2022-11-15T09:06:57;14.00;99.90
22698;DHT22;11516;51.612;7.510;2022-11-15T09:09:22;13.90;99.90
22698;DHT22;11516;51.612;7.510;2022-11-15T09:11:48;14.00;99.90
22698;DHT22;11516;51.612;7.510;2022-11-15T09:14:14;14.00;99.90
22698;DHT22;11516;51.612;7.510;2022-11-15T09:16:40;13.90;99.90
22698;DHT22;11516;51.612;7.510;2022-11-15T09:19:06;13.90;99.90
22698;DHT22;11516;51.612;7.510;2022-11-15T09:21:33;14.00;99.90
22698;DHT22;11516;51.612;7.510;2022-11-15T09:23:59;14.00;99.90
22698;DHT22;11516;51.612;7.510;2022-11-15T09:26:24;14.10;99.90
22698;DHT22;11516;51.612;7.510;2022-11-15T09:28:50;14.40;99.90
22698;DHT22;11516;51.612;7.510;2022-11-15T09:31:15;14.00;99.90
22698;DHT22;11516;51.612;7.510;2022-11-15T09:33:43;14.30;99.90
22698;DHT22;11516;51.612;7.510;2022-11-15T09:36:10;14.00;99.90
22698;DHT22;11516;51.612;7.510;2022-11-15T09:38:36;14.00;99.90
22698;DHT22;11516;51.612;7.510;2022-11-15T09:46:27;14.20;99.90
22698;DHT22;11516;51.612;7.510;2022-11-15T09:48:59;14.50;99.90
22698;DHT22;11516;51.612;7.510;2022-11-15T09:51:40;14.10;99.90
22698;DHT22;11516;51.612;7.510;2022-11-15T09:57:02;14.20;99.90
22698;DHT22;11516;51.612;7.510;2022-11-15T10:02:32;14.20;99.90
22698;DHT22;11516;51.612;7.510;2022-11-15T10:04:59;14.20;99.90
22698;DHT22;11516;51.612;7.510;2022-11-15T10:10:41;14.20;99.90
22698;DHT22;11516;51.612;7.510;2022-11-15T10:13:16;14.20;99.90
22698;DHT22;11516;51.612;7.510;2022-11-15T10:15:44;14.20;99.90
22698;DHT22;11516;51.612;7.510;2022-11-15T10:18:35;14.30;99.90
22698;DHT22;11516;51.612;7.510;2022-11-15T10:21:17;14.20;99.90
22698;DHT22;11516;51.612;7.510;2022-11-15T10:23:43;14.20;99.90
22698;DHT22;11516;51.612;7.510;2022-11-15T10:26:13;14.30;99.90
22698;DHT22;11516;51.612;7.510;2022-11-15T10:28:40;14.40;99.90
22698;DHT22;11516;51.612;7.510;2022-11-15T10:31:22;14.30;99.90
22698;DHT22;11516;51.612;7.510;2022-11-15T10:33:48;14.50;99.90
22698;DHT22;11516;51.612;7.510;2022-11-15T10:36:15;14.60;99.90
22698;DHT22;11516;51.612;7.510;2022-11-15T10:49:25;14.90;99.90
22698;DHT22;11516;51.612;7.510;2022-11-15T10:51:54;15.00;99.90
22698;DHT22;11516;51.612;7.510;2022-11-15T10:54:28;15.00;99.90
22698;DHT22;11516;51.612;7.510;2022-11-15T10:56:59;15.00;99.90
22698;DHT22;11516;51.612;7.510;2022-11-15T10:59:35;15.00;99.90
22698;DHT22;11516;51.612;7.510;2022-11-15T11:02:01;15.00;99.90
22698;DHT22;11516;51.612;7.510;2022-11-15T11:04:27;15.00;99.90
22698;DHT22;11516;51.612;7.510;2022-11-15T11:06:58;15.00;99.90
22698;DHT22;11516;51.612;7.510;2022-11-15T11:11:59;15.50;99.90
22698;DHT22;11516;51.612;7.510;2022-11-15T11:14:27;16.10;99.90
22698;DHT22;11516;51.612;7.510;2022-11-15T11:25:35;17.50;99.90
22698;DHT22;11516;51.612;7.510;2022-11-15T11:28:42;17.50;99.90
22698;DHT22;11516;51.612;7.510;2022-11-15T11:36:45;17.90;99.90
22698;DHT22;11516;51.612;7.510;2022-11-15T11:39:28;18.10;98.20
22698;DHT22;11516;51.612;7.510;2022-11-15T11:45:21;17.50;98.80
22698;DHT22;11516;51.612;7.510;2022-11-15T11:48:00;17.60;97.30
22698;DHT22;11516;51.612;7.510;2022-11-15T11:50:28;17.50;97.80
22698;DHT22;11516;51.612;7.510;2022-11-15T11:53:14;17.60;97.30
22698;DHT22;11516;51.612;7.510;2022-11-15T11:55:51;17.90;97.70
22698;DHT22;11516;51.612;7.510;2022-11-15T11:58:29;18.40;96.10
22698;DHT22;11516;51.612;7.510;2022-11-15T12:11:51;18.40;92.40
22698;DHT22;11516;51.612;7.510;2022-11-15T12:14:39;18.60;92.70
22698;DHT22;11516;51.612;7.510;2022-11-15T12:17:10;18.90;90.50
22698;DHT22;11516;51.612;7.510;2022-11-15T12:19:37;19.00;88.10
22698;DHT22;11516;51.612;7.510;2022-11-15T12:22:15;19.00;89.00
22698;DHT22;11516;51.612;7.510;2022-11-15T12:24:51;18.90;87.30
22698;DHT22;11516;51.612;7.510;2022-11-15T12:27:31;18.80;83.70
22698;DHT22;11516;51.612;7.510;2022-11-15T12:30:02;18.50;83.00
22698;DHT22;11516;51.612;7.510;2022-11-15T12:32:37;18.20;80.80
22698;DHT22;11516;51.612;7.510;2022-11-15T12:35:06;18.20;82.90
22698;DHT22;11516;51.612;7.510;2022-11-15T12:37:46;17.70;80.50
22698;DHT22;11516;51.612;7.510;2022-11-15T12:40:26;17.90;80.20
22698;DHT22;11516;51.612;7.510;2022-11-15T12:43:01;18.20;77.60
22698;DHT22;11516;51.612;7.510;2022-11-15T12:45:36;18.00;77.60
22698;DHT22;11516;51.612;7.510;2022-11-15T12:58:57;17.60;79.70
22698;DHT22;11516;51.612;7.510;2022-11-15T13:07:05;17.90;80.00
22698;DHT22;11516;51.612;7.510;2022-11-15T13:12:02;18.30;77.50
22698;DHT22;11516;51.612;7.510;2022-11-15T13:19:47;17.50;82.40
22698;DHT22;11516;51.612;7.510;2022-11-15T13:22:13;17.40;83.50
22698;DHT22;11516;51.612;7.510;2022-11-15T13:25:19;17.50;83.40
22698;DHT22;11516;51.612;7.510;2022-11-15T13:27:50;17.70;83.00
22698;DHT22;11516;51.612;7.510;2022-11-15T13:30:24;17.90;83.40
22698;DHT22;11516;51.612;7.510;2022-11-15T13:32:50;18.00;82.70
22698;DHT22;11516;51.612;7.510;2022-11-15T13:37:46;18.40;82.10
22698;DHT22;11516;51.612;7.510;2022-11-15T13:40:26;18.40;82.30
22698;DHT22;11516;51.612;7.510;2022-11-15T13:42:53;18.30;82.70
22698;DHT22;11516;51.612;7.510;2022-11-15T13:45:19;18.00;83.40
22698;DHT22;11516;51.612;7.510;2022-11-15T13:47:51;17.80;84.50
22698;DHT22;11516;51.612;7.510;2022-11-15T13:50:17;18.50;85.70
22698;DHT22;11516;51.612;7.510;2022-11-15T13:52:45;17.60;85.80
22698;DHT22;11516;51.612;7.510;2022-11-15T13:55:21;17.70;86.30
22698;DHT22;11516;51.612;7.510;2022-11-15T13:57:57;17.30;86.90
22698;DHT22;11516;51.612;7.510;2022-11-15T14:00:44;17.30;88.30
22698;DHT22;11516;51.612;7.510;2022-11-15T14:03:21;17.40;89.60
22698;DHT22;11516;51.612;7.510;2022-11-15T14:06:11;16.90;90.00
22698;DHT22;11516;51.612;7.510;2022-11-15T14:11:23;17.30;92.60
22698;DHT22;11516;51.612;7.510;2022-11-15T14:19:09;15.80;95.20
22698;DHT22;11516;51.612;7.510;2022-11-15T14:21:35;15.70;96.10
22698;DHT22;11516;51.612;7.510;2022-11-15T14:24:17;15.70;97.00
22698;DHT22;11516;51.612;7.510;2022-11-15T14:26:43;15.60;98.50
22698;DHT22;11516;51.612;7.510;2022-11-15T14:29:26;15.60;99.50
22698;DHT22;11516;51.612;7.510;2022-11-15T14:31:53;15.50;99.90
22698;DHT22;11516;51.612;7.510;2022-11-15T14:34:19;15.40;99.90
22698;DHT22;11516;51.612;7.510;2022-11-15T14:36:46;15.30;99.90
22698;DHT22;11516;51.612;7.510;2022-11-15T14:39:12;15.20;99.90
22698;DHT22;11516;51.612;7.510;2022-11-15T14:41:38;15.20;99.90
22698;DHT22;11516;51.612;7.510;2022-11-15T14:44:04;15.30;99.90
22698;DHT22;11516;51.612;7.510;2022-11-15T14:46:30;15.30;99.90
22698;DHT22;11516;51.612;7.510;2022-11-15T14:48:56;15.20;99.90
22698;DHT22;11516;51.612;7.510;2022-11-15T14:51:22;15.20;99.90
22698;DHT22;11516;51.612;7.510;2022-11-15T14:53:48;15.20;99.90
22698;DHT22;11516;51.612;7.510;2022-11-15T14:56:14;15.20;99.90
22698;DHT22;11516;51.612;7.510;2022-11-15T14:58:40;15.10;99.90
22698;DHT22;11516;51.612;7.510;2022-11-15T15:01:16;15.10;99.90
22698;DHT22;11516;51.612;7.510;2022-11-15T15:03:42;15.00;99.90
22698;DHT22;11516;51.612;7.510;2022-11-15T15:06:09;14.90;99.90
22698;DHT22;11516;51.612;7.510;2022-11-15T15:08:35;14.90;99.90
22698;DHT22;11516;51.612;7.510;2022-11-15T15:11:00;14.90;99.90
22698;DHT22;11516;51.612;7.510;2022-11-15T15:13:26;14.80;99.90
22698;DHT22;11516;51.612;7.510;2022-11-15T15:15:52;15.00;99.90
22698;DHT22;11516;51.612;7.510;2022-11-15T15:18:18;14.70;99.90
22698;DHT22;11516;51.612;7.510;2022-11-15T15:20:47;14.70;99.90
22698;DHT22;11516;51.612;7.510;2022-11-15T15:23:16;14.90;99.90
22698;DHT22;11516;51.612;7.510;2022-11-15T15:25:42;14.50;99.90
22698;DHT22;11516;51.612;7.510;2022-11-15T15:28:09;14.50;99.90
22698;DHT22;11516;51.612;7.510;2022-11-15T15:30:34;15.50;99.90
22698;DHT22;11516;51.612;7.510;2022-11-15T15:33:00;15.70;99.90
22698;DHT22;11516;51.612;7.510;2022-11-15T15:35:29;14.10;99.90
22698;DHT22;11516;51.612;7.510;2022-11-15T15:37:56;14.00;99.90
22698;DHT22;11516;51.612;7.510;2022-11-15T15:40:23;15.00;99.90
22698;DHT22;11516;51.612;7.510;2022-11-15T15:42:49;14.90;99.90
22698;DHT22;11516;51.612;7.510;2022-11-15T15:45:17;13.80;99.90
22698;DHT22;11516;51.612;7.510;2022-11-15T15:47:43;13.70;99.90
22698;DHT22;11516;51.612;7.510;2022-11-15T15:50:22;13.70;99.90
22698;DHT22;11516;51.612;7.510;2022-11-15T15:52:52;13.70;99.90
22698;DHT22;11516;51.612;7.510;2022-11-15T15:55:18;13.90;99.90
22698;DHT22;11516;51.612;7.510;2022-11-15T15:57:44;13.60;99.90
22698;DHT22;11516;51.612;7.510;2022-11-15T16:00:10;13.60;99.90
22698;DHT22;11516;51.612;7.510;2022-11-15T16:02:36;13.60;99.90
22698;DHT22;11516;51.612;7.510;2022-11-15T16:05:02;13.50;99.90
22698;DHT22;11516;51.612;7.510;2022-11-15T16:07:27;13.60;99.90
22698;DHT22;11516;51.612;7.510;2022-11-15T16:09:55;13.60;99.90
22698;DHT22;11516;51.612;7.510;2022-11-15T16:14:53;13.50;99.90
22698;DHT22;11516;51.612;7.510;2022-11-15T16:17:20;13.40;99.90
22698;DHT22;11516;51.612;7.510;2022-11-15T16:19:46;13.40;99.90
22698;DHT22;11516;51.612;7.510;2022-11-15T16:22:12;13.50;99.90
22698;DHT22;11516;51.612;7.510;2022-11-15T16:24:38;13.40;99.90
22698;DHT22;11516;51.612;7.510;2022-11-15T16:27:03;13.50;99.90
22698;DHT22;11516;51.612;7.510;2022-11-15T16:29:29;13.40;99.90
22698;DHT22;11516;51.612;7.510;2022-11-15T16:31:55;13.30;99.90
22698;DHT22;11516;51.612;7.510;2022-11-15T16:34:21;13.20;99.90
22698;DHT22;11516;51.612;7.510;2022-11-15T16:36:46;13.30;99.90
22698;DHT22;11516;51.612;7.510;2022-11-15T16:39:12;13.30;99.90
22698;DHT22;11516;51.612;7.510;2022-11-15T16:41:44;13.30;99.90
22698;DHT22;11516;51.612;7.510;2022-11-15T16:44:12;13.90;99.90
22698;DHT22;11516;51.612;7.510;2022-11-15T16:46:41;13.30;99.90
22698;DHT22;11516;51.612;7.510;2022-11-15T16:49:12;13.30;99.90
22698;DHT22;11516;51.612;7.510;2022-11-15T16:51:39;14.30;99.90
22698;DHT22;11516;51.612;7.510;2022-11-15T16:54:06;13.30;99.90
22698;DHT22;11516;51.612;7.510;2022-11-15T16:56:32;13.30;99.90
22698;DHT22;11516;51.612;7.510;2022-11-15T16:59:00;14.80;99.90
22698;DHT22;11516;51.612;7.510;2022-11-15T17:01:28;13.30;99.90
22698;DHT22;11516;51.612;7.510;2022-11-15T17:03:54;13.30;99.90
22698;DHT22;11516;51.612;7.510;2022-11-15T17:06:20;13.20;99.90
22698;DHT22;11516;51.612;7.510;2022-11-15T17:08:47;13.30;99.90
22698;DHT22;11516;51.612;7.510;2022-11-15T17:11:15;13.20;99.90
22698;DHT22;11516;51.612;7.510;2022-11-15T17:13:41;13.20;99.90
22698;DHT22;11516;51.612;7.510;2022-11-15T17:16:09;13.10;99.90
22698;DHT22;11516;51.612;7.510;2022-11-15T17:18:35;13.10;99.90
22698;DHT22;11516;51.612;7.510;2022-11-15T17:21:13;13.10;99.90
22698;DHT22;11516;51.612;7.510;2022-11-15T17:23:39;13.10;99.90
22698;DHT22;11516;51.612;7.510;2022-11-15T17:26:05;13.10;99.90
22698;DHT22;11516;51.612;7.510;2022-11-15T17:28:34;13.10;99.90
22698;DHT22;11516;51.612;7.510;2022-11-15T17:31:00;13.10;99.90
22698;DHT22;11516;51.612;7.510;2022-11-15T17:33:26;13.10;99.90
22698;DHT22;11516;51.612;7.510;2022-11-15T17:35:56;13.10;99.90